Time;durP1;ratioP1;P1;durP2;ratioP2;P2;SDS_P1;SDS_P2;PMS_P1;PMS_P2;Temp;Humidity;BMP_temperature;BMP_pressure;BME280_temperature;BME280_humidity;BME280_pressure;Samples;Min_cycle;Max_cycle;Signal;HPM_P1;HPM_P2
2024/01/19 00:00:08;;;;;;;69.88;11.48;;;;;;;;;;5117642;28;20414;-72
2024/01/19 00:03:12;;;;;;;80.28;11.80;;;;;;;;;;5117961;28;20058;-72
2024/01/19 00:06:16;;;;;;;77.05;11.27;;;;;;;;;;5117127;28;20042;-71
2024/01/19 00:09:21;;;;;;;97.95;12.82;;;;;;;;;;5117570;28;20497;-71
2024/01/19 00:12:25;;;;;;;69.47;10.55;;;;;;;;;;5117813;28;20046;-71
2024/01/19 00:15:29;;;;;;;68.65;10.05;;;;;;;;;;5117636;28;20525;-72
2024/01/19 00:18:33;;;;;;;75.50;9.90;;;;;;;;;;5117505;28;20042;-72
2024/01/19 00:21:44;;;;;;;65.78;8.77;;;16.10;99.90;;;;;;5117598;28;20054;-72
2024/01/19 00:24:48;;;;;;;69.40;9.07;;;;;;;;;;5116941;28;20046;-72
2024/01/19 00:27:52;;;;;;;80.57;11.10;;;;;;;;;;5117491;28;20505;-72
2024/01/19 00:30:56;;;;;;;70.63;9.30;;;;;;;;;;5117827;28;20047;-72
2024/01/19 00:34:01;;;;;;;92.05;11.27;;;;;;;;;;5117517;28;20522;-72
2024/01/19 00:37:07;;;;;;;63.05;9.07;;;16.40;99.90;;;;;;5117798;28;20051;-71
2024/01/19 00:40:11;;;;;;;68.25;9.43;;;;;;;;;;5113963;28;20042;-72
2024/01/19 00:43:16;;;;;;;72.18;8.95;;;;;;;;;;5113421;28;20043;-72
2024/01/19 00:46:20;;;;;;;70.68;9.73;;;;;;;;;;5114287;28;20040;-71
2024/01/19 00:49:24;;;;;;;79.45;11.98;;;;;;;;;;5113943;28;20044;-71
2024/01/19 00:52:29;;;;;;;86.30;10.45;;;;;;;;;;5114385;28;20105;-71
2024/01/19 00:55:33;;;;;;;69.15;10.15;;;;;;;;;;5113878;28;20058;-72
2024/01/19 00:58:39;;;;;;;78.63;11.05;;;;;;;;;;5113892;28;20042;-72
2024/01/19 01:01:44;;;;;;;73.78;10.13;;;;;;;;;;5113922;28;20050;-72
2024/01/19 01:04:48;;;;;;;74.47;10.52;;;;;;;;;;5113828;28;20043;-71
2024/01/19 01:07:52;;;;;;;72.20;10.43;;;;;;;;;;5112856;28;20042;-72
2024/01/19 01:10:56;;;;;;;74.43;10.80;;;;;;;;;;5112817;28;20046;-72
2024/01/19 01:14:01;;;;;;;70.40;10.00;;;;;;;;;;5113841;28;20399;-72
2024/01/19 01:17:05;;;;;;;75.60;10.95;;;;;;;;;;5113869;28;20050;-72
2024/01/19 01:20:12;;;;;;;79.95;11.35;;;;;;;;;;5113183;28;20418;-72
2024/01/19 01:23:16;;;;;;;81.50;11.75;;;;;;;;;;5113707;28;20518;-72
2024/01/19 01:26:20;;;;;;;73.30;10.05;;;;;;;;;;5113631;28;20031;-72
2024/01/19 01:29:25;;;;;;;83.70;11.80;;;;;;;;;;5113508;28;20048;-72
2024/01/19 01:32:29;;;;;;;85.50;12.25;;;;;;;;;;5113303;28;20046;-72
2024/01/19 01:35:35;;;;;;;77.00;10.48;;;;;;;;;;5113471;28;20038;-72
2024/01/19 01:38:39;;;;;;;90.95;11.73;;;;;;;;;;5112302;28;20034;-72
2024/01/19 01:41:44;;;;;;;92.05;12.48;;;;;;;;;;5113096;28;20054;-72
2024/01/19 01:44:48;;;;;;;95.13;11.98;;;;;;;;;;5113177;28;20043;-72
2024/01/19 01:47:53;;;;;;;77.72;11.93;;;;;;;;;;5112992;28;20046;-72
2024/01/19 01:50:57;;;;;;;84.93;12.73;;;16.10;99.90;;;;;;5111984;28;20685;-72
2024/01/19 01:54:04;;;;;;;82.95;11.63;;;14.80;99.90;;;;;;5112125;28;20058;-72
2024/01/19 01:57:09;;;;;;;80.78;11.00;;;;;;;;;;5112159;28;20050;-72
2024/01/19 02:00:16;;;;;;;96.63;11.90;;;16.10;99.90;;;;;;5112684;28;20039;-72
2024/01/19 02:03:20;;;;;;;80.50;12.15;;;;;;;;;;5112912;28;20407;-72
2024/01/19 02:06:24;;;;;;;89.35;10.63;;;;;;;;;;5112842;28;20055;-72
2024/01/19 02:09:29;;;;;;;82.03;11.75;;;;;;;;;;5112858;28;20042;-72
2024/01/19 02:12:33;;;;;;;76.40;9.55;;;;;;;;;;5112708;28;20039;-72
2024/01/19 02:15:38;;;;;;;83.65;11.98;;;;;;;;;;5112654;28;20047;-72
2024/01/19 02:18:42;;;;;;;83.95;11.57;;;;;;;;;;5112943;28;20038;-72
2024/01/19 02:21:47;;;;;;;90.30;11.70;;;;;;;;;;5112363;28;20407;-72
2024/01/19 02:24:50;;;;;;;72.30;10.93;;;;;;;;;;5112573;28;20042;-72
2024/01/19 02:27:56;;;;;;;73.82;10.68;;;15.90;99.90;;;;;;5112338;28;20047;-72
2024/01/19 02:31:00;;;;;;;76.50;11.48;;;;;;;;;;5112449;28;20494;-71
2024/01/19 02:34:04;;;;;;;73.05;11.48;;;;;;;;;;5112491;28;20043;-72
2024/01/19 02:37:08;;;;;;;78.45;11.43;;;;;;;;;;5112336;28;20509;-72
2024/01/19 02:40:13;;;;;;;85.22;9.80;;;;;;;;;;5111900;28;20046;-72
2024/01/19 02:43:17;;;;;;;67.00;8.68;;;;;;;;;;5111994;28;20040;-72
2024/01/19 02:46:22;;;;;;;73.13;9.95;;;18.30;99.90;;;;;;5112212;28;20044;-72
2024/01/19 02:49:27;;;;;;;63.35;9.20;;;;;;;;;;5111979;28;20109;-72
2024/01/19 02:52:31;;;;;;;79.13;9.68;;;;;;;;;;5111896;28;20036;-72
2024/01/19 02:55:35;;;;;;;76.10;9.57;;;;;;;;;;5111987;28;20040;-72
2024/01/19 02:58:40;;;;;;;71.43;9.05;;;;;;;;;;5111572;28;20043;-72
2024/01/19 03:01:44;;;;;;;70.63;9.15;;;;;;;;;;5111235;28;20051;-72
2024/01/19 03:04:48;;;;;;;64.15;9.05;;;;;;;;;;5110781;28;20028;-72
2024/01/19 03:07:53;;;;;;;77.07;10.05;;;;;;;;;;5111755;28;20415;-72
2024/01/19 03:10:57;;;;;;;70.28;9.55;;;;;;;;;;5111647;28;20054;-72
2024/01/19 03:14:02;;;;;;;77.03;10.20;;;;;;;;;;5111224;28;20045;-72
2024/01/19 03:17:06;;;;;;;64.28;8.70;;;;;;;;;;5111437;28;20387;-72
2024/01/19 03:20:10;;;;;;;59.67;9.45;;;;;;;;;;5111047;28;20056;-72
2024/01/19 03:23:15;;;;;;;76.40;9.93;;;;;;;;;;5111640;28;20515;-72
2024/01/19 03:26:19;;;;;;;69.05;9.10;;;;;;;;;;5111668;28;20042;-72
2024/01/19 03:29:24;;;;;;;62.50;7.80;;;;;;;;;;5111489;28;20507;-72
2024/01/19 03:32:28;;;;;;;64.32;9.20;;;;;;;;;;5111619;28;20039;-72
2024/01/19 03:35:33;;;;;;;70.63;8.75;;;;;;;;;;5111565;28;20050;-72
2024/01/19 03:38:37;;;;;;;64.32;9.80;;;;;;;;;;5112091;28;20393;-72
2024/01/19 03:41:42;;;;;;;66.72;8.63;;;;;;;;;;5110587;28;20048;-72
2024/01/19 03:44:46;;;;;;;67.20;8.15;;;;;;;;;;5111531;28;20036;-72
2024/01/19 03:47:51;;;;;;;52.72;7.65;;;;;;;;;;5111241;28;20422;-72
2024/01/19 03:50:55;;;;;;;52.53;8.25;;;;;;;;;;5111427;28;20047;-72
2024/01/19 03:53:59;;;;;;;60.97;7.95;;;;;;;;;;5111173;28;20403;-72
2024/01/19 03:57:05;;;;;;;55.88;8.50;;;;;;;;;;5111328;28;20039;-72
2024/01/19 04:00:09;;;;;;;57.42;8.63;;;;;;;;;;5111004;28;20043;-72
2024/01/19 04:03:18;;;;;;;58.28;11.07;;;;;;;;;;5111079;28;20059;-72
2024/01/19 04:06:23;;;;;;;69.55;11.55;;;;;;;;;;5110470;28;20046;-72
2024/01/19 04:09:27;;;;;;;50.63;8.70;;;;;;;;;;5110342;28;20043;-72
2024/01/19 04:12:31;;;;;;;65.60;8.80;;;;;;;;;;5111297;28;20043;-72
2024/01/19 04:15:35;;;;;;;61.25;7.50;;;;;;;;;;5114305;28;20035;-72
2024/01/19 04:18:40;;;;;;;57.25;8.00;;;;;;;;;;5114810;28;20032;-71
2024/01/19 04:21:45;;;;;;;59.67;10.20;;;;;;;;;;5113971;28;20118;-72
2024/01/19 04:24:49;;;;;;;58.83;10.65;;;;;;;;;;5114835;28;20083;-72
2024/01/19 04:27:53;;;;;;;58.55;8.38;;;;;;;;;;5113683;28;20039;-72
2024/01/19 04:30:58;;;;;;;69.03;8.93;;;;;;;;;;5114710;28;20035;-72
2024/01/19 04:34:02;;;;;;;59.72;9.75;;;;;;;;;;5114675;28;20032;-72
2024/01/19 04:37:06;;;;;;;55.97;7.53;;;;;;;;;;5113976;28;20042;-72
2024/01/19 04:40:11;;;;;;;64.95;9.75;;;;;;;;;;5114511;28;20043;-72
2024/01/19 04:43:15;;;;;;;72.80;10.68;;;;;;;;;;5114435;28;20054;-72
2024/01/19 04:46:19;;;;;;;59.70;9.00;;;;;;;;;;5114439;28;20050;-72
2024/01/19 04:49:23;;;;;;;64.85;9.02;;;;;;;;;;5114382;28;20039;-72
2024/01/19 04:52:28;;;;;;;65.20;9.45;;;;;;;;;;5114120;28;20027;-72
2024/01/19 04:55:32;;;;;;;73.80;8.70;;;;;;;;;;5114208;28;20042;-72
2024/01/19 04:58:37;;;;;;;68.88;10.55;;;14.90;99.90;;;;;;5113853;28;20047;-72
2024/01/19 05:01:42;;;;;;;78.68;9.40;;;;;;;;;;5113192;28;20047;-72
2024/01/19 05:04:46;;;;;;;65.85;9.38;;;;;;;;;;5114134;28;20040;-72
2024/01/19 05:07:51;;;;;;;72.03;8.35;;;;;;;;;;5112946;28;20425;-72
2024/01/19 05:10:55;;;;;;;61.85;9.77;;;;;;;;;;5113875;28;20051;-72
2024/01/19 05:14:02;;;;;;;76.72;8.73;;;;;;;;;;5113957;28;20395;-72
2024/01/19 05:17:06;;;;;;;65.68;9.88;;;;;;;;;;5113698;28;20047;-72
2024/01/19 05:20:11;;;;;;;82.45;8.90;;;13.40;99.90;;;;;;5113565;28;20066;-72
2024/01/19 05:23:15;;;;;;;76.13;9.95;;;;;;;;;;5112531;28;20058;-72
2024/01/19 05:26:19;;;;;;;62.45;8.80;;;;;;;;;;5113652;28;20043;-72
2024/01/19 05:29:23;;;;;;;63.33;8.35;;;;;;;;;;5113549;28;20039;-72
2024/01/19 05:32:28;;;;;;;74.70;10.10;;;;;;;;;;5113609;28;20499;-72
2024/01/19 05:35:32;;;;;;;70.57;11.52;;;;;;;;;;5113570;28;20054;-72
2024/01/19 05:38:37;;;;;;;72.45;9.40;;;;;;;;;;5113337;28;20047;-72
2024/01/19 05:41:41;;;;;;;77.93;10.10;;;;;;;;;;5113148;28;20050;-72
2024/01/19 05:44:45;;;;;;;64.20;8.80;;;;;;;;;;5112660;28;20537;-72
2024/01/19 05:47:49;;;;;;;65.70;9.27;;;;;;;;;;5113193;28;20044;-72
2024/01/19 05:50:54;;;;;;;73.25;9.88;;;;;;;;;;5113303;28;20511;-72
2024/01/19 05:53:58;;;;;;;57.40;8.95;;;;;;;;;;5113025;28;20391;-72
2024/01/19 05:57:03;;;;;;;69.97;9.23;;;;;;;;;;5113087;28;20395;-72
2024/01/19 06:00:07;;;;;;;68.35;9.45;;;;;;;;;;5112711;28;20490;-72
2024/01/19 06:03:15;;;;;;;60.15;8.38;;;;;;;;;;5112584;28;20058;-72
2024/01/19 06:06:20;;;;;;;58.55;7.75;;;;;;;;;;5112898;28;20039;-72
2024/01/19 06:09:24;;;;;;;61.47;8.80;;;;;;;;;;5112869;28;20154;-72
2024/01/19 06:12:28;;;;;;;52.75;8.88;;;;;;;;;;5112597;28;20028;-72
2024/01/19 06:15:32;;;;;;;47.95;8.55;;;;;;;;;;5111965;28;20047;-72
2024/01/19 06:18:37;;;;;;;64.15;9.30;;;;;;;;;;5111345;28;20042;-71
2024/01/19 06:21:45;;;;;;;62.33;9.65;;;15.80;99.90;;;;;;5111710;28;20047;-72
2024/01/19 06:24:51;;;;;;;56.13;8.77;;;;;;;;;;5100153;28;20043;-72
2024/01/19 06:27:57;;;;;;;59.30;10.50;;;16.00;99.90;;;;;;5112475;28;20028;-72
2024/01/19 06:31:07;;;;;;;80.10;12.82;;;12.50;99.90;;;;;;5112442;28;20050;-72
2024/01/19 06:34:12;;;;;;;64.30;11.00;;;;;;;;;;5112174;28;20066;-72
2024/01/19 06:37:16;;;;;;;54.13;8.95;;;;;;;;;;5111705;28;20050;-72
2024/01/19 06:40:20;;;;;;;57.42;10.57;;;;;;;;;;5111946;28;20040;-72
2024/01/19 06:43:25;;;;;;;59.22;8.80;;;;;;;;;;5111670;28;20062;-72
2024/01/19 06:46:29;;;;;;;53.88;9.32;;;;;;;;;;5112158;28;20040;-73
2024/01/19 06:49:33;;;;;;;51.75;9.50;;;;;;;;;;5111163;28;20052;-72
2024/01/19 06:52:38;;;;;;;66.68;10.30;;;;;;;;;;5111922;28;20036;-72
2024/01/19 06:55:42;;;;;;;70.82;9.05;;;;;;;;;;5111680;28;20368;-72
2024/01/19 06:58:46;;;;;;;59.78;9.00;;;;;;;;;;5112357;28;20105;-72
2024/01/19 07:01:51;;;;;;;46.20;7.43;;;;;;;;;;5111772;28;20052;-72
2024/01/19 07:04:55;;;;;;;63.35;9.60;;;;;;;;;;5112038;28;20403;-72
2024/01/19 07:07:59;;;;;;;56.20;8.35;;;;;;;;;;5111667;28;20035;-73
2024/01/19 07:11:04;;;;;;;42.55;7.30;;;;;;;;;;5111370;28;20047;-73
2024/01/19 07:14:09;;;;;;;46.45;8.05;;;;;;;;;;5111308;28;20036;-72
2024/01/19 07:17:13;;;;;;;52.03;8.32;;;;;;;;;;5111547;28;20117;-73
2024/01/19 07:20:17;;;;;;;69.28;9.13;;;;;;;;;;5110519;28;20060;-73
2024/01/19 07:23:22;;;;;;;39.45;7.18;;;;;;;;;;5111056;28;20044;-72
2024/01/19 07:26:26;;;;;;;46.58;8.82;;;;;;;;;;5110387;28;20031;-74
2024/01/19 07:29:33;;;;;;;54.38;7.63;;;;;;;;;;5111234;28;20044;-72
2024/01/19 07:32:38;;;;;;;36.60;8.00;;;;;;;;;;5111498;28;20036;-72
2024/01/19 07:35:42;;;;;;;44.72;7.68;;;;;;;;;;5111694;28;20039;-70
2024/01/19 07:38:46;;;;;;;50.55;9.30;;;;;;;;;;5111273;28;20044;-76
2024/01/19 07:41:51;;;;;;;48.65;7.97;;;;;;;;;;5111382;28;20047;-69
2024/01/19 07:44:55;;;;;;;47.10;8.85;;;;;;;;;;5109221;28;20036;-70
2024/01/19 07:47:59;;;;;;;64.03;9.23;;;;;;;;;;5110954;28;20050;-76
2024/01/19 07:51:04;;;;;;;41.95;7.13;;;;;;;;;;5115210;28;20545;-68
2024/01/19 07:54:08;;;;;;;37.72;7.03;;;;;;;;;;5115123;28;20036;-69
2024/01/19 07:57:12;;;;;;;49.40;7.70;;;;;;;;;;5115341;28;20032;-75
2024/01/19 08:00:18;;;;;;;48.47;7.63;;;;;;;;;;5115178;28;20032;-78
2024/01/19 08:03:22;;;;;;;39.92;7.55;;;;;;;;;;5114272;28;20685;-74
2024/01/19 08:06:26;;;;;;;44.28;8.18;;;;;;;;;;5114964;28;20387;-75
2024/01/19 08:09:31;;;;;;;44.83;8.10;;;;;;;;;;5114817;28;20046;-73
2024/01/19 08:12:35;;;;;;;51.33;8.00;;;;;;;;;;5114995;28;20039;-73
2024/01/19 08:15:39;;;;;;;46.25;7.80;;;;;;;;;;5114812;28;20039;-74
2024/01/19 08:18:44;;;;;;;50.20;7.57;;;;;;;;;;5101955;28;20043;-74
2024/01/19 08:21:48;;;;;;;42.67;7.57;;;;;;;;;;5114355;28;20498;-74
2024/01/19 08:24:53;;;;;;;47.45;7.07;;;;;;;;;;5114797;28;20047;-74
2024/01/19 08:27:57;;;;;;;52.60;8.23;;;;;;;;;;5114494;28;20040;-73
2024/01/19 08:31:01;;;;;;;50.70;8.48;;;;;;;;;;5114451;28;20044;-74
2024/01/19 08:34:05;;;;;;;49.33;7.10;;;;;;;;;;5114477;28;20046;-74
2024/01/19 08:37:10;;;;;;;49.63;8.35;;;;;;;;;;5114538;28;20042;-74
2024/01/19 08:40:14;;;;;;;45.60;7.63;;;;;;;;;;5114358;28;20042;-74
2024/01/19 08:43:18;;;;;;;42.15;6.38;;;;;;;;;;5114129;28;20269;-74
2024/01/19 08:46:23;;;;;;;37.88;7.80;;;;;;;;;;5114319;28;20084;-73
2024/01/19 08:49:27;;;;;;;48.05;7.60;;;;;;;;;;5114241;28;20043;-74
2024/01/19 08:52:32;;;;;;;47.20;7.78;;;;;;;;;;5114182;28;20046;-74
2024/01/19 08:55:39;;;;;;;31.80;5.57;;;;;;;;;;5113130;28;20047;-74
2024/01/19 08:58:43;;;;;;;36.15;6.07;;;;;;;;;;5113476;28;20055;-75
2024/01/19 09:01:47;;;;;;;50.47;7.63;;;;;;;;;;5113824;28;20495;-74
2024/01/19 09:04:52;;;;;;;50.75;6.90;;;;;;;;;;5112934;28;20043;-74
2024/01/19 09:07:56;;;;;;;44.00;7.10;;;;;;;;;;5113744;28;20032;-75
2024/01/19 09:11:00;;;;;;;48.55;7.30;;;;;;;;;;5113809;28;20043;-74
2024/01/19 09:14:06;;;;;;;41.17;7.05;;;;;;;;;;5114130;28;20048;-74
2024/01/19 09:17:10;;;;;;;46.15;7.18;;;;;;;;;;5112775;28;20035;-75
2024/01/19 09:20:14;;;;;;;49.92;7.20;;;;;;;;;;5113265;28;20044;-75
2024/01/19 09:23:19;;;;;;;49.90;7.25;;;;;;;;;;5113560;28;20047;-74
2024/01/19 09:26:24;;;;;;;50.70;8.93;;;;;;;;;;5113522;28;20439;-74
2024/01/19 09:29:28;;;;;;;47.28;7.28;;;;;;;;;;5113498;28;20054;-75
2024/01/19 09:32:33;;;;;;;55.83;8.75;;;17.50;99.90;;;;;;5113430;28;20044;-74
2024/01/19 09:35:37;;;;;;;54.63;8.13;;;;;;;;;;5113475;28;20050;-75
2024/01/19 09:38:42;;;;;;;42.65;7.07;;;;;;;;;;5112274;28;20035;-74
2024/01/19 09:41:47;;;;;;;34.42;6.55;;;19.00;99.90;;;;;;5112475;28;20498;-74
2024/01/19 09:45:04;;;;;;;46.35;6.93;;;18.90;99.90;;;;;;5113201;28;20054;-74
2024/01/19 09:48:24;;;;;;;46.50;7.55;;;18.70;99.90;;;;;;5112781;28;20038;-74
2024/01/19 09:51:50;;;;;;;39.17;7.25;;;19.00;99.90;;;;;;5113087;28;20494;-74
2024/01/19 09:54:55;;;;;;;45.72;9.00;;;;;;;;;;5112978;28;20039;-74
2024/01/19 09:58:00;;;;;;;49.67;8.63;;;;;;;;;;5112439;28;20153;-73
2024/01/19 10:01:04;;;;;;;49.60;8.32;;;;;;;;;;5112782;28;20035;-74
2024/01/19 10:04:13;;;;;;;47.70;7.18;;;18.80;99.90;;;;;;5112525;28;20569;-74
2024/01/19 10:07:18;;;;;;;54.38;8.60;;;;;;;;;;5112275;28;20042;-73
2024/01/19 10:10:22;;;;;;;36.92;6.00;;;;;;;;;;5112284;28;20050;-73
2024/01/19 10:13:26;;;;;;;41.15;7.28;;;;;;;;;;5112004;28;20044;-73
2024/01/19 10:16:32;;;;;;;45.85;8.82;;;;;;;;;;5112775;28;20391;-73
2024/01/19 10:19:36;;;;;;;39.90;7.57;;;;;;;;;;5112051;28;20404;-74
2024/01/19 10:22:41;;;;;;;42.20;6.65;;;;;;;;;;5112322;28;20043;-73
2024/01/19 10:25:45;;;;;;;38.10;6.75;;;;;;;;;;5112429;28;20043;-73
2024/01/19 10:28:49;;;;;;;43.25;7.85;;;;;;;;;;5112252;28;20054;-74
2024/01/19 10:31:54;;;;;;;41.58;7.95;;;;;;;;;;5111988;28;20031;-74
2024/01/19 10:35:30;;;;;;;39.90;7.57;;;21.10;99.90;;;;;;5112165;28;20039;-73
2024/01/19 10:38:35;;;;;;;53.50;7.72;;;;;;;;;;5111847;28;20046;-74
2024/01/19 10:41:39;;;;;;;46.58;7.70;;;;;;;;;;5111702;28;20039;-74
2024/01/19 10:44:44;;;;;;;49.13;8.93;;;;;;;;;;5111760;28;20491;-73
2024/01/19 10:47:54;;;;;;;44.63;6.90;;;19.40;99.90;;;;;;5110941;28;20048;-73
2024/01/19 10:51:03;;;;;;;37.92;7.00;;;19.50;99.90;;;;;;5111822;28;20046;-74
2024/01/19 10:54:10;;;;;;;42.25;7.75;;;;;;;;;;5111985;28;20047;-74
2024/01/19 10:57:15;;;;;;;44.47;8.00;;;;;;;;;;5111750;28;20043;-74
2024/01/19 11:00:27;;;;;;;40.60;6.47;;;19.50;99.90;;;;;;5111442;28;20048;-73
2024/01/19 11:03:31;;;;;;;47.78;6.80;;;;;;;;;;5111483;28;20051;-73
2024/01/19 11:06:36;;;;;;;37.10;5.95;;;;;;;;;;5111405;28;20443;-72
2024/01/19 11:09:40;;;;;;;44.70;9.07;;;;;;;;;;5111839;28;20056;-72
2024/01/19 11:12:52;;;;;;;40.90;7.65;;;20.60;99.90;;;;;;5111608;28;20050;-69
2024/01/19 11:15:59;;;;;;;50.70;7.53;;;19.00;99.90;;;;;;5111619;28;20039;-68
2024/01/19 11:19:04;;;;;;;43.45;7.63;;;;;;;;;;5111267;28;20058;-71
2024/01/19 11:22:09;;;;;;;51.72;7.25;;;;;;;;;;5111262;28;20031;-72
2024/01/19 11:25:15;;;;;;;50.47;7.60;;;;;;;;;;5111682;28;20664;-72
2024/01/19 11:28:24;;;;;;;50.15;10.10;;;;;;;;;;5110701;28;20043;-71
2024/01/19 11:31:35;;;;;;;44.15;7.25;;;;;;;;;;5111576;28;20051;-71
2024/01/19 11:34:48;;;;;;;49.97;7.35;;;19.40;99.90;;;;;;5111332;28;20041;-71
2024/01/19 11:37:53;;;;;;;42.20;6.55;;;;;;;;;;5110456;28;20051;-71
2024/01/19 11:40:57;;;;;;;42.05;8.20;;;;;;;;;;5111750;28;20035;-72
2024/01/19 11:44:10;;;;;;;43.45;7.43;;;19.30;99.90;;;;;;5110129;28;20047;-71
2024/01/19 11:47:35;;;;;;;43.70;7.32;;;19.20;99.90;;;;;;5111096;28;20043;-71
2024/01/19 11:50:44;;;;;;;39.65;7.20;;;20.60;99.90;;;;;;5098811;28;20597;-69
2024/01/19 11:53:56;;;;;;;37.13;6.95;;;19.00;99.90;;;;;;5111026;28;20043;-67
2024/01/19 11:57:16;;;;;;;45.70;6.75;;;19.00;99.90;;;;;;5110669;28;20042;-71
2024/01/19 12:00:20;;;;;;;51.22;7.40;;;;;;;;;;5110611;28;20046;-71
2024/01/19 12:03:24;;;;;;;56.13;9.43;;;;;;;;;;5110341;28;20052;-72
2024/01/19 12:06:29;;;;;;;44.50;7.30;;;;;;;;;;5111116;28;20043;-71
2024/01/19 12:09:34;;;;;;;46.90;8.07;;;;;;;;;;5110809;28;20039;-71
2024/01/19 12:12:38;;;;;;;38.15;6.35;;;;;;;;;;5111214;28;20035;-72
2024/01/19 12:15:43;;;;;;;41.90;7.45;;;;;;;;;;5111067;28;20613;-72
2024/01/19 12:18:52;;;;;;;39.72;6.45;;;;;;;;;;5110810;28;20476;-72
2024/01/19 12:21:57;;;;;;;46.85;7.85;;;19.70;99.90;;;;;;5110335;28;20036;-72
2024/01/19 12:25:23;;;;;;;57.35;7.85;;;19.10;99.90;;;;;;5110801;28;20047;-72
2024/01/19 12:28:28;;;;;;;40.47;6.60;;;;;;;;;;5111128;28;20105;-72
2024/01/19 12:31:37;;;;;;;41.15;6.88;;;;;;;;;;5110931;28;20506;-72
2024/01/19 12:34:41;;;;;;;49.75;6.35;;;;;;;;;;5112079;28;20054;-72
2024/01/19 12:37:45;;;;;;;39.10;7.03;;;;;;;;;;5113766;28;20039;-72
2024/01/19 12:40:49;;;;;;;53.28;7.95;;;;;;;;;;5114577;28;20406;-72
2024/01/19 12:43:57;;;;;;;41.40;7.53;;;;;;;;;;5114108;28;20604;-72
2024/01/19 12:47:01;;;;;;;50.58;7.50;;;;;;;;;;5114433;28;20031;-73
2024/01/19 12:50:06;;;;;;;44.30;7.22;;;;;;;;;;5114207;28;20044;-72
2024/01/19 12:53:14;;;;;;;43.00;7.07;;;19.10;99.90;;;;;;5113299;28;20039;-72
2024/01/19 12:56:27;;;;;;;41.72;6.88;;;19.60;99.90;;;;;;5113790;28;20110;-72
2024/01/19 12:59:31;;;;;;;46.40;7.10;;;;;;;;;;5113830;28;20051;-72
2024/01/19 13:02:35;;;;;;;46.17;8.25;;;;;;;;;;5113783;28;20511;-71
2024/01/19 13:05:39;;;;;;;40.38;7.30;;;;;;;;;;5114124;28;20043;-72
2024/01/19 13:08:43;;;;;;;39.42;7.00;;;;;;;;;;5113878;28;20105;-72
2024/01/19 13:11:48;;;;;;;52.15;7.88;;;;;;;;;;5113665;28;20050;-72
2024/01/19 13:14:52;;;;;;;45.75;7.18;;;;;;;;;;5113933;28;20036;-73
2024/01/19 13:18:26;;;;;;;58.15;7.28;;;;;;;;;;5113703;28;20048;-72
2024/01/19 13:21:31;;;;;;;35.78;6.90;;;;;;;;;;5112371;28;20046;-71
2024/01/19 13:24:36;;;;;;;45.83;8.15;;;;;;;;;;5113390;28;20047;-71
2024/01/19 13:27:41;;;;;;;40.92;6.15;;;;;;;;;;5113424;28;20039;-71
2024/01/19 13:30:47;;;;;;;42.10;7.63;;;;;;;;;;5113618;28;20391;-72
2024/01/19 13:33:51;;;;;;;45.08;7.18;;;;;;;;;;5113326;28;20035;-73
2024/01/19 13:36:56;;;;;;;35.80;6.30;;;;;;;;;;5112457;28;20043;-73
2024/01/19 13:40:04;;;;;;;39.50;6.57;;;;;;;;;;5112518;28;20051;-73
2024/01/19 13:43:09;;;;;;;36.42;5.90;;;;;;;;;;5113306;28;20054;-77
2024/01/19 13:46:16;;;;;;;44.75;8.10;;;;;;;;;;5113063;28;20058;-76
2024/01/19 13:49:21;;;;;;;47.13;8.23;;;;;;;;;;5113262;28;20046;-78
2024/01/19 13:52:26;;;;;;;38.35;6.88;;;;;;;;;;5112806;28;20048;-73
2024/01/19 13:55:30;;;;;;;49.10;7.07;;;;;;;;;;5112955;28;20047;-74
2024/01/19 13:58:36;;;;;;;51.60;8.10;;;;;;;;;;5112966;28;20407;-69
2024/01/19 14:01:40;;;;;;;58.58;7.80;;;;;;;;;;5111746;28;20039;-79
2024/01/19 14:04:46;;;;;;;34.33;6.32;;;19.10;99.90;;;;;;5112177;28;20181;-71
2024/01/19 14:07:50;;;;;;;49.25;7.47;;;;;;;;;;5112930;28;20526;-78
2024/01/19 14:10:55;;;;;;;46.67;7.22;;;;;;;;;;5111904;28;20068;-75
2024/01/19 14:13:59;;;;;;;48.50;8.60;;;;;;;;;;5100043;28;20032;-73
2024/01/19 14:17:04;;;;;;;57.17;7.28;;;;;;;;;;5111561;28;20040;-75
2024/01/19 14:20:10;;;;;;;44.30;7.32;;;;;;;;;;5111267;28;20360;-73
2024/01/19 14:23:15;;;;;;;43.17;7.95;;;;;;;;;;5110667;28;20058;-73
2024/01/19 14:26:23;;;;;;;53.35;7.75;;;;;;;;;;5111070;28;20047;-74
2024/01/19 14:29:27;;;;;;;58.83;9.57;;;;;;;;;;5111788;28;20050;-74
2024/01/19 14:32:31;;;;;;;43.45;8.18;;;;;;;;;;5111959;28;20060;-74
2024/01/19 14:35:37;;;;;;;48.20;8.10;;;;;;;;;;5112319;28;20031;-74
2024/01/19 14:38:40;;;;;;;50.75;7.55;;;;;;;;;;5111878;28;20036;-74
2024/01/19 14:41:45;;;;;;;56.97;8.70;;;;;;;;;;5111889;28;20046;-73
2024/01/19 14:44:49;;;;;;;43.28;7.15;;;;;;;;;;5110953;28;20455;-73
2024/01/19 14:47:54;;;;;;;45.30;8.50;;;;;;;;;;5111009;28;20102;-73
2024/01/19 14:50:59;;;;;;;46.85;8.70;;;;;;;;;;5111652;28;20036;-73
2024/01/19 14:54:03;;;;;;;50.63;10.25;;;;;;;;;;5111429;28;20047;-73
2024/01/19 14:57:07;;;;;;;44.55;13.05;;;;;;;;;;5098448;28;20069;-73
2024/01/19 15:00:12;;;;;;;64.47;17.10;;;;;;;;;;5111796;28;20038;-73
2024/01/19 15:03:16;;;;;;;57.13;13.35;;;;;;;;;;5111302;28;20058;-73
2024/01/19 15:06:20;;;;;;;55.80;13.43;;;;;;;;;;5111662;28;20050;-73
2024/01/19 15:09:25;;;;;;;53.55;10.45;;;;;;;;;;5111294;28;20038;-73
2024/01/19 15:12:30;;;;;;;50.15;10.65;;;;;;;;;;5111506;28;20414;-73
2024/01/19 15:15:34;;;;;;;51.97;9.40;;;;;;;;;;5111553;28;20046;-73
2024/01/19 15:18:38;;;;;;;52.03;8.07;;;;;;;;;;5111017;28;20513;-73
2024/01/19 15:21:43;;;;;;;48.83;7.22;;;;;;;;;;5111707;28;20048;-73
2024/01/19 15:24:47;;;;;;;46.30;8.30;;;;;;;;;;5111038;28;20040;-73
2024/01/19 15:27:53;;;;;;;48.35;8.63;;;;;;;;;;5111273;28;20039;-73
2024/01/19 15:30:57;;;;;;;56.83;8.65;;;;;;;;;;5111447;28;20145;-73
2024/01/19 15:34:01;;;;;;;41.72;7.20;;;;;;;;;;5111309;28;20032;-74
2024/01/19 15:37:06;;;;;;;44.83;7.68;;;;;;;;;;5111392;28;20056;-74
2024/01/19 15:40:10;;;;;;;39.05;7.60;;;;;;;;;;5111149;28;20430;-73
2024/01/19 15:43:14;;;;;;;40.05;8.38;;;;;;;;;;5111250;28;20039;-73
2024/01/19 15:46:23;;;;;;;45.17;9.55;;;;;;;;;;5111164;28;20047;-73
2024/01/19 15:49:27;;;;;;;49.97;9.57;;;;;;;;;;5111363;28;20035;-73
2024/01/19 15:52:31;;;;;;;60.33;8.23;;;;;;;;;;5111005;28;20047;-75
2024/01/19 15:55:36;;;;;;;50.67;8.95;;;;;;;;;;5111113;28;20063;-74
2024/01/19 15:58:40;;;;;;;52.20;8.00;;;;;;;;;;5111034;28;20502;-74
2024/01/19 16:01:44;;;;;;;52.42;9.13;;;;;;;;;;5111097;28;20062;-74
2024/01/19 16:04:49;;;;;;;46.05;10.57;;;;;;;;;;5111026;28;20063;-74
2024/01/19 16:07:53;;;;;;;51.13;10.35;;;;;;;;;;5110854;28;20038;-73
2024/01/19 16:10:57;;;;;;;51.70;12.43;;;;;;;;;;5114178;28;20050;-74
2024/01/19 16:14:03;;;;;;;64.25;15.88;;;;;;;;;;5114867;28;20043;-73
2024/01/19 16:17:07;;;;;;;66.57;17.98;;;;;;;;;;5114536;28;20051;-73
2024/01/19 16:20:12;;;;;;;60.58;15.00;;;;;;;;;;5114620;28;20054;-74
2024/01/19 16:23:16;;;;;;;66.18;16.38;;;;;;;;;;5114886;28;20058;-74
2024/01/19 16:26:21;;;;;;;70.97;17.10;;;;;;;;;;5113680;28;20486;-74
2024/01/19 16:29:25;;;;;;;52.28;14.20;;;;;;;;;;5114656;28;20042;-74
2024/01/19 16:32:29;;;;;;;65.43;15.18;;;;;;;;;;5114649;28;20467;-74
2024/01/19 16:35:34;;;;;;;71.38;15.45;;;;;;;;;;5114606;28;20042;-74
2024/01/19 16:38:40;;;;;;;69.80;16.33;;;;;;;;;;5113583;28;20070;-74
2024/01/19 16:41:46;;;;;;;72.20;15.25;;;17.30;99.90;;;;;;5114230;28;20043;-73
2024/01/19 16:44:51;;;;;;;74.05;15.45;;;;;;;;;;5113988;28;20407;-73
2024/01/19 16:47:56;;;;;;;64.55;13.93;;;;;;;;;;5114105;28;20047;-73
2024/01/19 16:51:02;;;;;;;71.00;14.48;;;;;;;;;;5112791;28;20043;-74
2024/01/19 16:54:07;;;;;;;70.20;13.82;;;;;;;;;;5112236;28;20531;-72
2024/01/19 16:57:11;;;;;;;66.85;14.35;;;;;;;;;;5113334;28;20042;-78
2024/01/19 17:00:17;;;;;;;78.07;15.05;;;;;;;;;;5113498;28;20469;-79
2024/01/19 17:03:21;;;;;;;61.30;13.63;;;;;;;;;;5113698;28;20047;-72
2024/01/19 17:06:28;;;;;;;65.57;14.73;;;;;;;;;;5113936;28;20387;-74
2024/01/19 17:09:32;;;;;;;61.50;16.83;;;;;;;;;;5113418;28;20039;-75
2024/01/19 17:12:36;;;;;;;91.10;32.05;;;;;;;;;;5113875;28;20058;-75
2024/01/19 17:15:41;;;;;;;76.07;21.98;;;;;;;;;;5114166;28;20054;-78
2024/01/19 17:18:45;;;;;;;96.22;30.02;;;;;;;;;;5113658;28;20055;-76
2024/01/19 17:21:49;;;;;;;90.05;24.92;;;;;;;;;;5113179;28;20058;-78
2024/01/19 17:24:53;;;;;;;71.47;21.25;;;;;;;;;;5113630;28;20054;-78
2024/01/19 17:27:58;;;;;;;60.85;18.80;;;;;;;;;;5113886;28;20034;-79
2024/01/19 17:31:02;;;;;;;77.38;19.42;;;;;;;;;;5113881;28;20046;-80
2024/01/19 17:34:06;;;;;;;82.05;21.58;;;;;;;;;;5114003;28;20055;-74
2024/01/19 17:37:11;;;;;;;84.20;22.00;;;;;;;;;;5113446;28;20078;-77
2024/01/19 17:40:15;;;;;;;76.78;23.35;;;;;;;;;;5111161;28;20043;-76
2024/01/19 17:43:19;;;;;;;84.78;24.65;;;;;;;;;;5113132;28;20058;-77
2024/01/19 17:46:24;;;;;;;66.85;24.77;;;;;;;;;;5112806;28;20055;-84
2024/01/19 17:49:28;;;;;;;82.68;27.55;;;;;;;;;;5113439;28;20046;-75
2024/01/19 17:52:38;;;;;;;83.88;27.77;;;14.70;99.90;;;;;;5113361;28;20447;-75